Time;durP1;ratioP1;P1;durP2;ratioP2;P2;SDS_P1;SDS_P2;PMS_P1;PMS_P2;Temp;Humidity;BMP_temperature;BMP_pressure;BME280_temperature;BME280_humidity;BME280_pressure;Samples;Min_cycle;Max_cycle;Signal;HPM_P1;HPM_P2
2022/04/25 00:02:13;;;;;;;7.78;4.45;;;;;;;14.09;73.11;99785.75;4671574;30;20050;-77
2022/04/25 00:04:39;;;;;;;8.07;4.70;;;;;;;14.42;72.01;99796.38;4672471;30;20062;-77
2022/04/25 00:07:05;;;;;;;18.80;4.82;;;;;;;14.13;72.00;99768.94;4674028;30;20120;-77
2022/04/25 00:09:30;;;;;;;8.23;5.05;;;;;;;13.97;72.76;99765.81;4671429;30;20125;-77
2022/04/25 00:11:57;;;;;;;9.73;4.85;;;;;;;14.04;72.22;99774.44;4672136;30;20038;-77
2022/04/25 00:14:22;;;;;;;12.80;5.47;;;;;;;14.31;72.04;99781.69;4653346;30;20113;-77
2022/04/25 00:16:49;;;;;;;14.38;5.03;;;;;;;14.34;72.24;99793.94;4670441;30;20129;-77
2022/04/25 00:19:15;;;;;;;10.50;5.40;;;;;;;13.70;73.36;99757.66;4655289;30;20059;-77
2022/04/25 00:21:40;;;;;;;8.40;4.93;;;;;;;13.60;74.55;99771.97;4671251;30;20045;-77
2022/04/25 00:24:06;;;;;;;5.38;4.00;;;;;;;13.73;73.83;99789.22;4663347;30;20073;-77
2022/04/25 00:26:31;;;;;;;6.68;3.97;;;;;;;13.73;74.07;99776.03;4670521;30;20061;-76
2022/04/25 00:28:57;;;;;;;5.78;3.53;;;;;;;13.72;73.88;99771.69;4670859;30;20057;-76
2022/04/25 00:31:23;;;;;;;7.32;4.45;;;;;;;13.62;74.29;99751.69;4684447;30;20050;-76
2022/04/25 00:33:52;;;;;;;10.52;5.38;;;;;;;13.38;74.79;99766.28;4664422;30;20495;-77
2022/04/25 00:36:19;;;;;;;6.90;4.72;;;;;;;13.33;75.09;99780.47;4669796;30;20042;-77
2022/04/25 00:38:45;;;;;;;7.22;4.38;;;;;;;12.88;76.18;99747.13;4669996;30;20042;-77
2022/04/25 00:41:11;;;;;;;10.15;4.38;;;;;;;12.96;76.27;99757.50;4672911;30;20046;-77
2022/04/25 00:43:37;;;;;;;9.23;4.95;;;;;;;12.96;76.00;99754.88;4657837;30;20128;-78
2022/04/25 00:46:03;;;;;;;9.15;4.68;;;;;;;12.88;77.14;99787.50;4666212;30;20504;-77
2022/04/25 00:48:29;;;;;;;11.55;4.55;;;;;;;12.67;77.28;99761.59;4672121;30;20045;-77
2022/04/25 00:50:54;;;;;;;10.05;3.95;;;;;;;12.52;77.59;99751.34;4672901;30;20030;-77
2022/04/25 00:53:20;;;;;;;6.90;3.30;;;;;;;12.57;76.98;99757.38;4657031;30;20675;-77
2022/04/25 00:55:46;;;;;;;10.88;4.40;;;;;;;12.55;76.35;99733.72;4663000;30;20065;-78
2022/04/25 00:58:13;;;;;;;8.80;4.25;;;;;;;12.37;77.26;99739.34;4670971;30;20479;-78
2022/04/25 01:00:39;;;;;;;16.75;3.22;;;;;;;12.40;76.91;99715.59;4670778;30;20113;-78
2022/04/25 01:03:05;;;;;;;7.53;4.57;;;;;;;12.29;77.72;99747.38;4669621;30;20614;-78
2022/04/25 01:05:31;;;;;;;6.38;3.38;;;;;;;12.16;77.72;99730.06;4673296;30;20394;-78
2022/04/25 01:07:57;;;;;;;5.38;3.33;;;;;;;12.61;76.87;99759.91;4670450;30;20491;-79
2022/04/25 01:10:22;;;;;;;10.27;3.95;;;;;;;12.32;77.14;99739.41;4673951;30;20050;-78
2022/04/25 01:12:48;;;;;;;5.05;3.28;;;;;;;12.22;77.48;99725.56;4669840;30;21401;-78
2022/04/25 01:15:13;;;;;;;9.48;4.07;;;;;;;12.33;78.35;99764.81;4670036;30;20038;-77
2022/04/25 01:17:40;;;;;;;6.80;4.47;;;;;;;12.64;77.41;99762.50;4670163;30;20050;-77
2022/04/25 01:20:07;;;;;;;5.45;4.53;;;;;;;12.13;78.41;99741.50;4667843;30;20054;-77
2022/04/25 01:28:34;;;;;;;5.68;3.58;;;;;;;12.06;78.70;99717.94;4670837;30;20097;-78
2022/04/25 01:30:59;;;;;;;9.18;3.60;;;;;;;12.01;78.79;99713.66;4652912;30;20077;-78
2022/04/25 01:33:26;;;;;;;5.90;4.40;;;;;;;12.01;78.91;99715.41;4683902;30;20022;-78
2022/04/25 01:35:52;;;;;;;5.97;3.88;;;;;;;12.15;78.45;99723.06;4669122;30;20078;-77
2022/04/25 01:38:17;;;;;;;6.75;3.85;;;;;;;11.91;78.87;99703.31;4671084;30;20385;-77
2022/04/25 01:40:43;;;;;;;8.23;4.00;;;;;;;11.94;79.25;99691.00;4657077;30;20053;-77
2022/04/25 01:43:08;;;;;;;8.25;3.83;;;;;;;12.13;79.34;99735.38;4669734;30;20042;-77
2022/04/25 01:45:34;;;;;;;5.82;3.60;;;;;;;11.88;79.73;99703.38;4671679;30;20027;-77
2022/04/25 01:47:59;;;;;;;13.43;4.32;;;;;;;11.76;80.10;99688.66;4671222;30;20030;-77
2022/04/25 01:50:25;;;;;;;5.55;3.95;;;;;;;11.96;80.00;99725.13;4669264;30;20054;-78
2022/04/25 01:52:51;;;;;;;12.15;3.75;;;;;;;11.64;80.34;99680.97;4671302;30;20480;-77
2022/04/25 01:55:16;;;;;;;9.35;4.13;;;;;;;11.71;80.83;99691.34;4670146;30;20050;-77
2022/04/25 01:57:44;;;;;;;8.82;3.92;;;;;;;11.86;80.20;99684.97;4668216;30;20117;-77
2022/04/25 02:00:10;;;;;;;16.77;4.20;;;;;;;11.92;79.76;99666.50;4670986;30;20034;-78
2022/04/25 02:02:36;;;;;;;5.85;4.13;;;;;;;12.22;79.41;99682.59;4677206;30;20054;-78
2022/04/25 02:05:04;;;;;;;8.73;4.70;;;;;;;12.00;79.17;99697.91;4670955;30;20031;-77
2022/04/25 02:07:29;;;;;;;17.30;5.05;;;;;;;12.24;78.96;99699.22;4652392;30;20042;-77
2022/04/25 02:09:55;;;;;;;10.93;4.35;;;;;;;11.92;78.53;99665.63;4660978;30;20054;-77
2022/04/25 02:12:21;;;;;;;8.25;4.25;;;;;;;12.13;78.21;99709.94;4652167;30;20030;-77
2022/04/25 02:14:47;;;;;;;11.77;5.18;;;;;;;12.31;78.10;99721.03;4669650;30;20051;-78
2022/04/25 02:17:14;;;;;;;6.20;4.40;;;;;;;11.35;80.24;99679.63;4668475;30;20443;-78
2022/04/25 02:19:40;;;;;;;7.95;4.70;;;;;;;11.16;80.47;99685.16;4671246;30;20488;-77
2022/04/25 02:22:08;;;;;;;8.13;4.13;;;;;;;11.22;80.45;99689.47;4671856;30;20051;-78
2022/04/25 02:24:34;;;;;;;5.78;3.08;;;;;;;11.29;80.74;99735.75;4681785;30;20105;-78
2022/04/25 02:27:03;;;;;;;6.13;4.03;;;;;;;11.35;80.95;99725.16;4672892;30;20060;-78
2022/04/25 02:29:37;;;;;;;5.82;4.05;;;;;;;11.47;79.79;99702.22;4674301;30;20087;-77
2022/04/25 02:32:03;;;;;;;11.85;4.85;;;;;;;11.74;79.79;99717.56;4673104;30;20104;-78
2022/04/25 02:34:29;;;;;;;10.65;4.65;;;;;;;11.79;78.96;99728.00;4672343;30;20499;-77
2022/04/25 02:36:55;;;;;;;5.88;4.15;;;;;;;11.46;79.24;99680.34;4673587;30;20076;-78
2022/04/25 02:39:22;;;;;;;6.55;3.42;;;;;;;11.32;79.58;99692.81;4672340;30;20042;-78
2022/04/25 02:41:48;;;;;;;5.32;3.40;;;;;;;11.73;78.31;99714.97;4669200;30;20050;-78
2022/04/25 02:44:14;;;;;;;6.55;3.67;;;;;;;11.59;77.14;99705.56;4672112;30;20054;-80
2022/04/25 02:46:39;;;;;;;6.45;3.22;;;;;;;11.40;78.54;99728.59;4675588;30;20058;-77
2022/04/25 02:49:05;;;;;;;4.75;3.10;;;;;;;11.34;78.54;99726.06;4688585;30;20042;-80
2022/04/25 02:51:30;;;;;;;6.25;3.95;;;;;;;11.60;79.26;99761.59;4678747;30;20045;-79
2022/04/25 02:53:56;;;;;;;6.68;4.10;;;;;;;11.60;78.58;99766.84;4675336;30;20038;-78
2022/04/25 02:56:21;;;;;;;5.53;3.85;;;;;;;11.43;79.10;99721.56;4674214;30;20104;-78
2022/04/25 02:58:47;;;;;;;7.30;3.30;;;;;;;11.62;78.26;99723.03;4671362;30;20384;-78
2022/04/25 03:01:12;;;;;;;5.90;3.10;;;;;;;11.70;79.02;99764.94;4671461;30;20042;-80
2022/04/25 03:03:38;;;;;;;13.18;4.18;;;;;;;11.23;81.63;99698.22;4673288;30;20527;-77
2022/04/25 03:06:06;;;;;;;5.45;3.85;;;;;;;10.91;83.78;99691.63;4671249;30;20045;-77
2022/04/25 03:08:34;;;;;;;9.52;4.63;;;;;;;10.91;84.66;99665.38;4670419;30;20061;-77
2022/04/25 03:11:01;;;;;;;9.70;4.40;;;;;;;11.45;85.20;99678.63;4671828;30;20097;-76
2022/04/25 03:13:27;;;;;;;5.80;4.18;;;;;;;11.71;85.63;99716.78;4672021;30;20034;-76
2022/04/25 03:15:53;;;;;;;6.22;3.45;;;;;;;10.91;85.94;99662.75;4672880;30;20068;-76
2022/04/25 03:18:19;;;;;;;7.68;4.65;;;;;;;11.57;86.78;99728.34;4673414;30;20043;-76
2022/04/25 03:20:48;;;;;;;8.68;4.95;;;;;;;11.13;87.34;99718.47;4654918;30;20046;-77
2022/04/25 03:23:19;;;;;;;12.23;4.40;;;;;;;10.86;85.83;99741.56;4674449;30;20057;-76
2022/04/25 03:25:45;;;;;;;7.07;4.57;;;;;;;10.52;87.71;99734.06;4657877;30;20058;-77
2022/04/25 03:28:11;;;;;;;7.93;4.28;;;;;;;10.53;88.03;99735.81;4671265;30;20447;-78
2022/04/25 03:30:37;;;;;;;9.60;3.80;;;;;;;10.81;86.21;99719.75;4671292;30;20097;-77
2022/04/25 03:33:03;;;;;;;7.82;4.00;;;;;;;10.91;86.13;99723.13;4674388;30;20092;-77
2022/04/25 03:35:30;;;;;;;9.90;4.65;;;;;;;10.91;87.50;99754.63;4661191;30;20054;-78
2022/04/25 03:37:58;;;;;;;6.03;4.13;;;;;;;10.70;88.24;99725.16;4671911;30;20081;-77
2022/04/25 03:40:24;;;;;;;12.75;5.63;;;;;;;11.10;86.88;99718.53;4653004;30;20132;-77
2022/04/25 03:42:50;;;;;;;9.02;4.40;;;;;;;10.94;88.19;99723.09;4672230;30;20061;-77
2022/04/25 03:45:18;;;;;;;14.02;4.97;;;;;;;11.39;88.02;99718.13;4673554;30;20039;-77
2022/04/25 03:47:46;;;;;;;9.27;4.35;;;;;;;11.23;87.17;99706.09;4661728;30;20440;-77
2022/04/25 03:50:15;;;;;;;5.57;4.15;;;;;;;11.40;86.43;99733.84;4670863;30;20050;-77
2022/04/25 03:52:43;;;;;;;7.00;4.78;;;;;;;11.42;86.25;99720.69;4669115;30;20050;-77
2022/04/25 03:58:07;;;;;;;10.23;5.50;;;;;;;11.41;86.97;99705.81;4671848;30;20410;-77
2022/04/25 04:00:37;;;;;;;10.82;4.68;;;;;;;11.53;87.34;99683.75;4682637;30;20066;-77
2022/04/25 04:03:02;;;;;;;8.45;4.40;;;;;;;11.51;87.70;99699.53;4672843;30;20053;-78
2022/04/25 04:05:28;;;;;;;6.82;5.00;;;;;;;11.67;87.78;99715.06;4669136;30;20062;-77
2022/04/25 04:07:54;;;;;;;6.38;3.30;;;;;;;11.53;87.35;99724.03;4668825;30;20058;-78
2022/04/25 04:10:20;;;;;;;5.38;4.13;;;;;;;11.07;86.88;99708.06;4663682;30;20058;-78
2022/04/25 04:12:47;;;;;;;10.30;4.38;;;;;;;11.12;87.53;99725.50;4671036;30;20073;-78
2022/04/25 04:15:13;;;;;;;8.68;3.78;;;;;;;11.49;86.12;99737.22;4671724;30;20034;-77
2022/04/25 04:17:39;;;;;;;10.77;4.43;;;;;;;11.46;85.99;99705.75;4649856;30;20134;-78
2022/04/25 04:20:06;;;;;;;6.28;4.65;;;;;;;11.66;86.44;99724.72;4671456;30;20141;-77
2022/04/25 04:22:32;;;;;;;8.15;4.57;;;;;;;11.02;88.16;99694.13;4656745;30;20081;-78
2022/04/25 04:25:04;;;;;;;15.27;5.38;;;;;;;11.29;86.64;99713.88;4658188;30;20046;-77
2022/04/25 04:27:31;;;;;;;7.55;5.20;;;;;;;11.30;86.90;99710.38;4671759;30;20046;-77
2022/04/25 04:30:01;;;;;;;6.88;4.50;;;;;;;11.72;86.52;99745.63;4674020;30;20125;-77
2022/04/25 04:32:29;;;;;;;5.18;4.20;;;;;;;11.50;85.92;99720.59;4669411;30;20050;-77
2022/04/25 04:34:56;;;;;;;6.97;4.40;;;;;;;11.52;85.09;99729.28;4672957;30;20447;-77
2022/04/25 04:37:23;;;;;;;7.32;3.88;;;;;;;11.13;85.52;99740.34;4671420;30;20061;-77
2022/04/25 04:39:49;;;;;;;7.53;4.80;;;;;;;11.21;86.24;99750.75;4685648;30;22093;-77
2022/04/25 04:42:14;;;;;;;9.88;4.32;;;;;;;11.10;85.09;99724.66;4672184;30;20517;-77
2022/04/25 04:44:42;;;;;;;7.53;4.22;;;;;;;11.11;84.99;99708.00;4661140;30;20058;-77
2022/04/25 04:47:09;;;;;;;9.15;4.43;;;;;;;11.49;85.59;99748.59;4669290;30;20035;-76
2022/04/25 04:49:35;;;;;;;6.35;4.43;;;;;;;11.10;86.87;99755.28;4672873;30;20128;-78
2022/04/25 04:52:00;;;;;;;9.20;4.75;;;;;;;10.88;87.11;99731.03;4671824;30;20114;-77
2022/04/25 04:54:27;;;;;;;6.80;4.70;;;;;;;11.15;86.85;99729.84;4664977;30;20247;-77
2022/04/25 04:56:53;;;;;;;6.43;4.55;;;;;;;11.15;85.67;99738.56;4662326;30;20057;-77
2022/04/25 04:59:18;;;;;;;9.18;5.47;;;;;;;11.12;86.10;99730.75;4667983;30;20042;-77
2022/04/25 05:01:44;;;;;;;8.80;5.65;;;;;;;11.09;87.04;99730.78;4654234;30;20054;-77
2022/04/25 05:04:12;;;;;;;9.05;4.20;;;;;;;10.96;85.93;99731.84;4670680;30;20046;-76
2022/04/25 05:06:37;;;;;;;7.28;4.95;;;;;;;11.23;84.22;99745.47;4670736;30;20095;-76
2022/04/25 05:09:03;;;;;;;7.50;4.80;;;;;;;11.14;85.53;99742.09;4672273;30;20066;-76
2022/04/25 05:11:30;;;;;;;8.13;5.10;;;;;;;11.60;84.10;99762.47;4662693;30;20099;-76
2022/04/25 05:13:56;;;;;;;6.68;4.50;;;;;;;11.42;83.62;99725.94;4667873;30;20079;-76
2022/04/25 05:16:28;;;;;;;7.85;4.93;;;;;;;11.64;84.22;99737.00;4660605;30;20459;-76
2022/04/25 05:18:56;;;;;;;10.35;5.07;;;;;;;11.74;84.66;99717.56;4671194;30;20046;-76
2022/04/25 05:21:22;;;;;;;6.53;4.40;;;;;;;11.80;83.55;99703.47;4660883;30;20046;-76
2022/04/25 05:23:48;;;;;;;9.57;5.15;;;;;;;11.70;82.75;99702.72;4674204;30;20055;-76
2022/04/25 05:26:14;;;;;;;9.18;5.18;;;;;;;11.86;83.00;99720.91;4672766;30;20085;-76
2022/04/25 05:28:39;;;;;;;7.35;4.57;;;;;;;12.18;81.63;99730.91;4670621;30;20140;-76
2022/04/25 05:31:06;;;;;;;10.95;4.60;;;;;;;12.63;79.39;99752.88;4672371;30;20066;-77
2022/04/25 05:33:32;;;;;;;8.52;4.75;;;;;;;12.59;78.84;99734.53;4658652;30;20038;-77
2022/04/25 05:35:57;;;;;;;6.40;3.85;;;;;;;12.93;79.36;99733.88;4674079;30;20065;-76
2022/04/25 05:38:23;;;;;;;7.32;4.95;;;;;;;12.76;78.37;99744.72;4675379;30;20065;-77
2022/04/25 05:40:51;;;;;;;6.80;4.20;;;;;;;13.03;77.37;99781.03;4678109;30;20057;-77
2022/04/25 05:43:17;;;;;;;7.97;4.68;;;;;;;13.02;79.03;99762.66;4668065;30;20049;-77
2022/04/25 05:45:46;;;;;;;10.40;5.05;;;;;;;13.50;77.47;99778.34;4655951;30;20046;-77
2022/04/25 05:54:30;;;;;;;9.10;3.72;;;;;;;13.28;76.48;99802.53;4667544;30;20450;-77
2022/04/25 05:56:56;;;;;;;5.45;3.75;;;;;;;13.85;75.60;99788.06;4665864;30;20059;-76
2022/04/25 06:02:44;;;;;;;8.18;3.83;;;;;;;13.84;75.86;99806.59;4668901;30;20054;-78
2022/04/25 06:09:09;;;;;;;6.28;3.60;;;;;;;13.94;73.63;99801.03;4653132;30;20050;-78
2022/04/25 06:11:34;;;;;;;9.77;4.30;;;;;;;13.79;74.42;99756.59;4667909;30;20047;-78
2022/04/25 06:17:21;;;;;;;4.97;3.63;;;;;;;14.05;73.35;99748.03;4652592;30;20089;-78
2022/04/25 06:19:47;;;;;;;6.45;3.65;;;;;;;14.91;71.21;99789.81;4654577;30;20137;-77
2022/04/25 06:22:13;;;;;;;9.15;4.03;;;;;;;14.40;72.24;99788.50;4655433;30;20043;-77
2022/04/25 06:28:01;;;;;;;4.88;3.55;;;;;;;14.66;72.10;99758.81;4655305;30;20085;-77
2022/04/25 06:38:05;;;;;;;5.72;3.40;;;;;;;15.21;69.95;99759.00;4636692;30;20131;-77
2022/04/25 06:40:32;;;;;;;9.00;4.00;;;;;;;15.66;70.08;99755.84;4647773;30;20108;-77
2022/04/25 06:42:59;;;;;;;7.00;3.75;;;;;;;15.85;68.63;99748.25;4642487;30;20102;-76
2022/04/25 06:45:37;;;;;;;11.32;3.83;;;;;;;16.29;67.46;99752.97;4652288;30;20027;-76
2022/04/25 06:48:03;;;;;;;8.45;4.18;;;;;;;16.34;66.18;99757.22;4649134;30;20102;-76
2022/04/25 06:53:52;;;;;;;9.65;4.70;;;;;;;16.54;65.53;99731.81;4641558;30;20106;-76
2022/04/25 06:59:46;;;;;;;7.50;4.22;;;;;;;16.61;63.35;99744.75;4644233;30;20545;-75
2022/04/25 07:02:59;;;;;;;10.60;3.78;;;;;;;16.62;63.75;99740.31;4647473;30;20047;-76
2022/04/25 07:05:25;;;;;;;8.40;3.13;;;;;;;15.90;63.95;99745.47;4663161;30;20084;-77
2022/04/25 07:08:10;;;;;;;14.13;4.30;;;;;;;15.98;62.85;99746.91;4652021;30;20054;-77
2022/04/25 07:20:40;;;;;;;14.38;3.45;;;;;;;17.07;63.70;99774.94;4667226;30;20053;-76
2022/04/25 07:28:53;;;;;;;19.75;4.53;;;;;;;17.41;58.69;99755.09;4669238;30;20045;-76
2022/04/25 07:31:20;;;;;;;14.50;3.25;;;;;;;17.35;61.62;99735.88;4651670;30;20125;-76
2022/04/25 07:33:56;;;;;;;19.05;3.65;;;;;;;17.37;58.72;99753.50;4664614;30;20121;-77
2022/04/25 07:39:45;;;;;;;8.02;4.05;;;;;;;17.82;58.40;99754.44;4669376;30;20543;-77
2022/04/25 07:42:48;;;;;;;9.02;3.17;;;;;;;17.47;58.34;99730.13;4668246;30;20480;-76
2022/04/25 07:48:35;;;;;;;5.88;3.22;;;;;;;18.07;58.11;99730.38;4668652;30;20105;-76
2022/04/25 07:51:02;;;;;;;18.58;4.20;;;;;;;18.01;57.34;99733.31;4665859;30;20031;-76
2022/04/25 07:53:30;;;;;;;17.52;3.70;;;;;;;18.16;57.21;99743.25;4653787;30;20051;-77
2022/04/25 07:55:55;;;;;;;7.40;2.70;;;;;;;18.03;57.60;99724.34;4649829;30;20055;-77
2022/04/25 08:02:17;;;;;;;8.68;4.38;;;;;;;18.38;57.97;99732.59;4647617;30;20149;-76
2022/04/25 08:04:45;;;;;;;10.30;3.85;;;;;;;18.86;57.13;99762.44;4645874;30;20058;-76
2022/04/25 08:07:11;;;;;;;7.57;3.30;;;;;;;18.75;56.02;99760.22;4665621;30;20495;-76
2022/04/25 08:09:37;;;;;;;9.48;3.30;;;;;;;18.06;59.55;99733.97;4652665;30;20193;-76
2022/04/25 08:20:17;;;;;;;4.15;3.38;;;;;;;18.76;58.86;99735.38;4655611;30;20466;-76
2022/04/25 08:22:42;;;;;;;8.65;3.38;;;;;;;18.70;56.60;99720.53;4654934;30;20055;-76
2022/04/25 08:25:10;;;;;;;10.27;4.25;;;;;;;18.54;57.67;99733.66;4667226;30;20043;-77
2022/04/25 08:27:36;;;;;;;12.70;3.13;;;;;;;18.76;58.43;99738.03;4655346;30;20150;-76
2022/04/25 08:30:03;;;;;;;8.15;3.10;;;;;;;18.85;56.24;99720.84;4652969;30;20134;-76
2022/04/25 08:32:32;;;;;;;27.88;4.22;;;;;;;19.31;54.70;99729.34;4655431;30;20132;-76
2022/04/25 08:34:58;;;;;;;11.32;2.95;;;;;;;19.06;53.14;99716.31;4654791;30;20055;-76
2022/04/25 08:37:23;;;;;;;9.40;2.97;;;;;;;19.47;54.39;99732.16;4659089;30;20460;-76
2022/04/25 08:39:56;;;;;;;15.70;3.58;;;;;;;19.34;54.70;99700.81;4667637;30;20465;-76
2022/04/25 08:42:22;;;;;;;8.93;3.75;;;;;;;19.61;54.84;99729.69;4658503;30;20030;-77
2022/04/25 08:44:52;;;;;;;14.23;4.68;;;;;;;19.42;52.39;99692.44;4656355;30;20110;-76
2022/04/25 08:47:18;;;;;;;14.02;4.20;;;;;;;19.76;52.91;99726.31;4655887;30;20107;-76
2022/04/25 08:49:44;;;;;;;24.58;4.35;;;;;;;19.67;51.69;99707.25;4658019;30;20049;-77
2022/04/25 08:52:10;;;;;;;12.57;3.88;;;;;;;19.64;55.05;99692.25;4652596;30;20047;-77
2022/04/25 08:54:37;;;;;;;8.00;3.60;;;;;;;19.81;52.60;99704.78;4655450;30;20039;-76
2022/04/25 08:57:03;;;;;;;9.10;3.40;;;;;;;20.05;52.76;99704.50;4654324;30;20092;-76
2022/04/25 08:59:32;;;;;;;5.03;2.88;;;;;;;19.87;55.76;99707.13;4652623;30;20054;-77
2022/04/25 09:01:58;;;;;;;14.90;3.53;;;;;;;20.34;53.23;99721.66;4654515;30;20067;-77
2022/04/25 09:04:30;;;;;;;10.25;3.20;;;;;;;20.21;51.51;99727.63;4666388;30;20057;-77
2022/04/25 09:07:03;;;;;;;20.10;4.65;;;;;;;20.24;52.21;99702.63;4665803;30;20507;-77
2022/04/25 09:09:28;;;;;;;20.60;4.60;;;;;;;20.40;52.07;99700.03;4654783;30;20046;-77
2022/04/25 09:12:10;;;;;;;15.65;4.68;;;;;;;20.53;50.61;99695.75;4651279;30;20054;-77
2022/04/25 09:14:37;;;;;;;12.85;4.28;;;;;;;20.96;51.82;99698.00;4666932;30;20051;-77
2022/04/25 09:17:03;;;;;;;14.73;4.97;;;;;;;20.97;52.16;99724.56;4654605;30;20046;-76
2022/04/25 09:19:32;;;;;;;12.20;3.83;;;;;;;20.54;51.26;99707.31;4666472;30;20051;-77
2022/04/25 09:21:58;;;;;;;7.05;3.75;;;;;;;20.36;51.96;99709.13;4653054;30;20090;-76
2022/04/25 09:24:33;;;;;;;13.20;4.53;;;;;;;20.74;52.78;99699.13;4654351;30;20038;-76
2022/04/25 09:27:08;;;;;;;11.88;4.97;;;;;;;21.15;51.11;99716.53;4652796;30;20046;-76
2022/04/25 09:29:38;;;;;;;19.90;5.15;;;;;;;21.64;51.68;99748.53;4664433;30;20480;-77
2022/04/25 09:32:06;;;;;;;45.05;7.85;;;;;;;22.09;54.39;99752.16;4651337;30;20054;-76
2022/04/25 09:37:17;;;;;;;12.82;3.47;;;;;;;22.06;49.20;99706.94;4662173;30;20053;-77
2022/04/25 09:39:44;;;;;;;13.75;4.30;;;;;;;22.29;49.85;99735.00;4652635;30;20379;-77
2022/04/25 09:42:10;;;;;;;15.77;5.10;;;;;;;22.49;50.61;99715.94;4652385;30;20042;-77
2022/04/25 09:44:56;;;;;;;13.38;4.82;;;;;;;22.34;49.79;99728.41;4653684;30;20090;-77
2022/04/25 09:47:29;;;;;;;19.25;4.05;;;;;;;22.58;46.70;99724.38;4651162;30;20158;-77
2022/04/25 09:50:07;;;;;;;17.90;5.47;;;;;;;22.40;47.29;99705.78;4659259;30;20147;-77
2022/04/25 09:52:59;;;;;;;18.42;5.60;;;;;;;23.32;50.87;99715.28;4652964;30;20047;-77
2022/04/25 09:55:30;;;;;;;13.33;5.27;;;;;;;23.61;49.49;99724.13;4652303;30;20090;-76
2022/04/25 09:57:57;;;;;;;13.00;4.72;;;;;;;23.00;48.61;99706.66;4668048;30;20461;-76
2022/04/25 10:00:30;;;;;;;25.17;6.75;;;;;;;23.35;49.52;99720.47;4652493;30;20125;-76
2022/04/25 10:02:57;;;;;;;16.25;7.57;;;;;;;23.28;47.45;99711.09;4648881;30;20054;-76
2022/04/25 10:05:34;;;;;;;12.60;5.60;;;;;;;23.38;45.10;99715.75;4651256;30;20129;-75
2022/04/25 10:08:01;;;;;;;20.73;7.72;;;;;;;22.78;46.77;99705.28;4652717;30;20082;-76
2022/04/25 10:10:27;;;;;;;18.58;8.02;;;;;;;22.98;45.37;99725.44;4663563;30;20718;-76
2022/04/25 10:12:55;;;;;;;25.95;8.00;;;;;;;23.46;47.88;99680.47;4656729;30;20067;-76
2022/04/25 10:15:22;;;;;;;14.70;6.90;;;;;;;23.76;45.64;99688.34;4654585;30;20054;-76
2022/04/25 10:17:51;;;;;;;36.40;7.07;;;;;;;22.55;49.28;99659.41;4652138;30;20054;-76
2022/04/25 10:20:16;;;;;;;17.25;6.72;;;;;;;23.11;47.82;99702.34;4660943;30;20503;-76
2022/04/25 10:22:43;;;;;;;20.50;7.40;;;;;;;23.57;45.89;99702.03;4655525;30;20043;-76
2022/04/25 10:25:09;;;;;;;22.63;8.50;;;;;;;23.12;46.81;99676.41;4660051;30;20082;-76
2022/04/25 10:27:38;;;;;;;17.77;5.80;;;;;;;22.28;49.05;99675.31;4653937;30;20472;-76
2022/04/25 10:30:16;;;;;;;26.15;9.20;;;;;;;22.77;47.84;99695.53;4651945;30;20042;-78
2022/04/25 10:32:42;;;;;;;33.38;13.80;;;;;;;23.31;47.56;99684.13;4655838;30;20094;-76
2022/04/25 10:35:13;;;;;;;38.03;12.90;;;;;;;23.87;46.11;99671.53;4654790;30;20162;-76
2022/04/25 10:37:40;;;;;;;43.33;15.90;;;;;;;23.85;46.16;99696.72;4653040;30;20488;-77
2022/04/25 10:40:09;;;;;;;44.97;17.23;;;;;;;24.23;43.41;99675.34;4650846;30;20062;-76
2022/04/25 10:45:59;;;;;;;75.82;22.80;;;;;;;24.74;43.20;99683.44;4648192;30;20089;-76
2022/04/25 10:48:26;;;;;;;48.70;17.63;;;;;;;24.89;43.54;99667.22;4663404;30;20038;-76
2022/04/25 10:51:37;;;;;;;60.70;18.05;;;;;;;24.65;42.54;99678.72;4648022;30;20066;-76
2022/04/25 10:54:05;;;;;;;31.52;9.45;;;;;;;24.54;50.74;99676.81;4619601;30;20505;-76
2022/04/25 10:56:32;;;;;;;18.20;7.15;;;;;;;24.21;43.38;99664.75;4653617;30;20580;-77
2022/04/25 10:59:26;;;;;;;32.28;11.35;;;;;;;24.13;43.19;99674.28;4656925;30;20059;-76
2022/04/25 11:01:53;;;;;;;40.88;14.38;;;;;;;24.88;43.93;99682.47;4655334;30;20101;-77
2022/04/25 11:04:20;;;;;;;42.60;13.35;;;;;;;25.13;41.39;99697.69;4648773;30;20097;-77
2022/04/25 11:06:47;;;;;;;54.63;13.27;;;;;;;24.87;41.08;99663.81;4639940;30;20043;-77
2022/04/25 11:09:41;;;;;;;41.85;12.65;;;;;;;24.77;43.49;99671.63;4641449;30;20035;-77
2022/04/25 11:12:07;;;;;;;29.45;11.07;;;;;;;24.81;41.09;99675.81;4631037;30;20071;-77
2022/04/25 11:14:33;;;;;;;40.88;12.27;;;;;;;25.09;40.04;99681.91;4651408;30;20065;-77
2022/04/25 11:17:12;;;;;;;34.22;12.10;;;;;;;25.11;40.38;99683.50;4655935;30;20134;-76
2022/04/25 11:19:56;;;;;;;44.13;13.50;;;;;;;24.00;43.56;99664.38;4642251;30;20035;-76
2022/04/25 11:22:37;;;;;;;42.20;12.38;;;;;;;24.22;41.42;99671.81;4640284;30;20052;-76
2022/04/25 11:25:27;;;;;;;51.70;11.85;;;;;;;24.55;45.57;99664.25;4638640;30;20040;-77
2022/04/25 11:28:08;;;;;;;38.15;12.70;;;;;;;25.16;43.65;99664.38;4642215;30;20073;-76
2022/04/25 11:30:34;;;;;;;35.13;10.07;;;;;;;25.33;42.45;99690.03;4635950;30;20043;-77
2022/04/25 11:33:11;;;;;;;36.30;13.25;;;;;;;24.91;42.83;99668.84;4644797;30;20046;-77
2022/04/25 11:35:39;;;;;;;34.63;11.43;;;;;;;24.91;41.63;99671.53;4638091;30;20157;-76
2022/04/25 11:38:06;;;;;;;38.08;12.65;;;;;;;25.06;41.55;99648.09;4636304;30;20042;-76
2022/04/25 11:40:32;;;;;;;33.85;11.48;;;;;;;24.95;41.44;99656.91;4644824;30;20039;-76
2022/04/25 11:42:59;;;;;;;37.05;13.45;;;;;;;25.05;42.21;99673.22;4637451;30;20375;-77
2022/04/25 11:45:27;;;;;;;42.55;14.20;;;;;;;24.61;41.85;99653.09;4638767;30;20066;-76
2022/04/25 11:47:53;;;;;;;40.55;15.60;;;;;;;24.63;42.07;99648.47;4634960;30;20047;-77
2022/04/25 11:50:20;;;;;;;51.13;14.98;;;;;;;24.67;45.53;99655.34;4641536;30;20444;-76
2022/04/25 11:52:51;;;;;;;41.58;14.40;;;;;;;24.98;40.82;99686.25;4633290;30;20066;-76
2022/04/25 11:55:30;;;;;;;22.70;10.32;;;;;;;24.69;40.73;99661.47;4644341;30;20453;-77
2022/04/25 11:57:55;;;;;;;19.70;8.45;;;;;;;24.83;41.74;99661.31;4643470;30;20130;-76
2022/04/25 12:00:21;;;;;;;24.10;9.20;;;;;;;24.78;40.22;99651.91;4637122;30;20050;-76
2022/04/25 12:02:47;;;;;;;23.50;8.27;;;;;;;24.87;41.08;99663.81;4631838;30;20340;-77
2022/04/25 12:05:33;;;;;;;13.70;4.85;;;;;;;24.47;39.91;99659.44;4657837;30;20411;-76
2022/04/25 12:16:14;;;;;;;11.75;5.30;;;;;;;24.51;39.74;99652.88;4657087;30;20197;-76
2022/04/25 12:19:00;;;;;;;24.85;5.07;;;;;;;24.38;41.08;99647.50;4671095;30;20033;-76
2022/04/25 12:21:25;;;;;;;11.70;4.10;;;;;;;24.41;40.67;99654.47;4658610;30;20391;-76
2022/04/25 12:23:54;;;;;;;16.55;5.68;;;;;;;24.35;38.79;99650.38;4672686;30;20074;-76
2022/04/25 12:26:28;;;;;;;8.57;2.97;;;;;;;24.30;38.94;99670.44;4669393;30;20050;-76
2022/04/25 12:29:03;;;;;;;11.10;4.35;;;;;;;24.44;37.64;99660.47;4654799;30;20389;-76
2022/04/25 12:31:49;;;;;;;10.68;3.63;;;;;;;24.36;38.25;99656.59;4673434;30;20062;-76
2022/04/25 12:34:19;;;;;;;11.25;3.10;;;;;;;24.23;37.77;99651.22;4669586;30;20116;-76
2022/04/25 12:36:55;;;;;;;16.85;4.55;;;;;;;23.98;39.79;99660.09;4647806;30;20045;-76
2022/04/25 12:39:21;;;;;;;9.30;3.25;;;;;;;23.86;40.73;99637.66;4672542;30;20506;-76
2022/04/25 12:41:58;;;;;;;6.10;3.00;;;;;;;23.95;40.16;99634.38;4669257;30;20050;-76
2022/04/25 12:44:26;;;;;;;14.43;3.30;;;;;;;24.18;40.35;99658.72;4667301;30;20057;-76
2022/04/25 12:47:00;;;;;;;11.90;4.60;;;;;;;23.76;41.93;99632.06;4671660;30;20082;-76
2022/04/25 12:49:43;;;;;;;9.18;4.25;;;;;;;23.53;43.20;99622.88;4665040;30;20099;-76
2022/04/25 12:52:13;;;;;;;11.73;4.28;;;;;;;23.82;43.05;99627.25;4659979;30;20050;-76
2022/04/25 12:54:43;;;;;;;26.30;3.40;;;;;;;23.88;40.41;99657.19;4664827;30;20061;-76
2022/04/25 12:57:13;;;;;;;12.38;4.63;;;;;;;24.16;40.55;99661.53;4668210;30;20053;-76
2022/04/25 12:59:40;;;;;;;8.63;3.10;;;;;;;23.83;39.91;99631.66;4671523;30;20057;-76
2022/04/25 13:02:11;;;;;;;21.95;5.07;;;;;;;23.81;41.54;99615.66;4651909;30;20487;-76
2022/04/25 13:04:57;;;;;;;18.57;3.37;;;;;;;24.10;40.19;99651.22;4664977;30;20126;-76
2022/04/25 13:07:32;;;;;;;9.48;3.30;;;;;;;24.14;39.43;99652.72;4683389;30;20457;-76
2022/04/25 13:10:04;;;;;;;7.90;3.80;;;;;;;24.15;39.21;99642.84;4663884;30;20060;-76